sensor_id;sensor_type;location;lat;lon;timestamp;P1;durP1;ratioP1;P2;durP2;ratioP2
13493;SDS011;6819;50.886;4.332;2023-05-14T00:01:48;61.03;;;33.25;;
13493;SDS011;6819;50.886;4.332;2023-05-14T00:04:16;65.97;;;32.67;;
13493;SDS011;6819;50.886;4.332;2023-05-14T00:06:43;63.88;;;29.38;;
13493;SDS011;6819;50.886;4.332;2023-05-14T00:09:10;65.70;;;33.42;;
13493;SDS011;6819;50.886;4.332;2023-05-14T00:11:36;69.30;;;32.67;;
13493;SDS011;6819;50.886;4.332;2023-05-14T00:14:02;72.93;;;32.13;;
13493;SDS011;6819;50.886;4.332;2023-05-14T00:16:28;61.95;;;33.08;;
13493;SDS011;6819;50.886;4.332;2023-05-14T00:18:57;64.18;;;33.65;;
13493;SDS011;6819;50.886;4.332;2023-05-14T00:21:23;64.30;;;32.53;;
13493;SDS011;6819;50.886;4.332;2023-05-14T00:23:49;62.10;;;31.88;;
13493;SDS011;6819;50.886;4.332;2023-05-14T00:26:15;67.05;;;32.72;;
13493;SDS011;6819;50.886;4.332;2023-05-14T00:28:41;69.72;;;34.33;;
13493;SDS011;6819;50.886;4.332;2023-05-14T00:31:07;62.72;;;32.50;;
13493;SDS011;6819;50.886;4.332;2023-05-14T00:33:34;66.70;;;31.45;;
13493;SDS011;6819;50.886;4.332;2023-05-14T00:36:00;75.43;;;32.95;;
13493;SDS011;6819;50.886;4.332;2023-05-14T00:38:26;69.95;;;33.97;;
13493;SDS011;6819;50.886;4.332;2023-05-14T00:40:52;74.05;;;35.63;;
13493;SDS011;6819;50.886;4.332;2023-05-14T00:43:19;72.80;;;36.03;;
13493;SDS011;6819;50.886;4.332;2023-05-14T00:45:45;74.90;;;35.45;;
13493;SDS011;6819;50.886;4.332;2023-05-14T00:48:12;71.78;;;34.35;;
13493;SDS011;6819;50.886;4.332;2023-05-14T00:50:38;70.28;;;33.88;;
13493;SDS011;6819;50.886;4.332;2023-05-14T00:53:04;70.97;;;35.22;;
13493;SDS011;6819;50.886;4.332;2023-05-14T00:55:34;82.32;;;34.53;;
13493;SDS011;6819;50.886;4.332;2023-05-14T00:58:01;78.53;;;37.17;;
13493;SDS011;6819;50.886;4.332;2023-05-14T01:00:27;73.90;;;34.83;;
13493;SDS011;6819;50.886;4.332;2023-05-14T01:02:53;78.78;;;35.78;;
13493;SDS011;6819;50.886;4.332;2023-05-14T01:05:19;71.00;;;35.75;;
13493;SDS011;6819;50.886;4.332;2023-05-14T01:07:51;76.03;;;34.55;;
13493;SDS011;6819;50.886;4.332;2023-05-14T01:10:23;75.22;;;35.47;;
13493;SDS011;6819;50.886;4.332;2023-05-14T01:15:28;76.45;;;34.92;;
13493;SDS011;6819;50.886;4.332;2023-05-14T01:17:58;75.18;;;35.53;;
13493;SDS011;6819;50.886;4.332;2023-05-14T01:20:25;75.10;;;36.03;;
13493;SDS011;6819;50.886;4.332;2023-05-14T01:22:51;73.57;;;34.42;;
13493;SDS011;6819;50.886;4.332;2023-05-14T01:25:17;75.53;;;35.13;;
13493;SDS011;6819;50.886;4.332;2023-05-14T01:30:30;81.25;;;33.92;;
13493;SDS011;6819;50.886;4.332;2023-05-14T01:32:58;74.35;;;33.55;;
13493;SDS011;6819;50.886;4.332;2023-05-14T01:35:26;78.40;;;34.40;;
13493;SDS011;6819;50.886;4.332;2023-05-14T01:37:53;72.53;;;33.95;;
13493;SDS011;6819;50.886;4.332;2023-05-14T01:40:20;81.10;;;37.10;;
13493;SDS011;6819;50.886;4.332;2023-05-14T01:42:46;70.30;;;35.28;;
13493;SDS011;6819;50.886;4.332;2023-05-14T01:45:13;75.65;;;34.78;;
13493;SDS011;6819;50.886;4.332;2023-05-14T01:47:39;75.20;;;35.05;;
13493;SDS011;6819;50.886;4.332;2023-05-14T01:50:05;75.70;;;35.05;;
13493;SDS011;6819;50.886;4.332;2023-05-14T01:52:31;78.00;;;35.83;;
13493;SDS011;6819;50.886;4.332;2023-05-14T01:54:57;79.40;;;35.95;;
13493;SDS011;6819;50.886;4.332;2023-05-14T01:57:24;81.32;;;35.85;;
13493;SDS011;6819;50.886;4.332;2023-05-14T01:59:50;71.13;;;33.33;;
13493;SDS011;6819;50.886;4.332;2023-05-14T02:02:16;75.13;;;35.75;;
13493;SDS011;6819;50.886;4.332;2023-05-14T02:04:42;82.00;;;36.17;;
13493;SDS011;6819;50.886;4.332;2023-05-14T02:07:08;71.30;;;34.28;;
13493;SDS011;6819;50.886;4.332;2023-05-14T02:09:34;85.55;;;36.95;;
13493;SDS011;6819;50.886;4.332;2023-05-14T02:12:00;74.22;;;34.40;;
13493;SDS011;6819;50.886;4.332;2023-05-14T02:14:26;82.63;;;35.58;;
13493;SDS011;6819;50.886;4.332;2023-05-14T02:16:52;84.43;;;37.28;;
13493;SDS011;6819;50.886;4.332;2023-05-14T02:19:18;78.18;;;35.28;;
13493;SDS011;6819;50.886;4.332;2023-05-14T02:21:44;72.13;;;33.53;;
13493;SDS011;6819;50.886;4.332;2023-05-14T02:24:11;75.95;;;34.50;;
13493;SDS011;6819;50.886;4.332;2023-05-14T02:26:37;79.75;;;34.70;;
13493;SDS011;6819;50.886;4.332;2023-05-14T02:29:03;87.97;;;35.35;;
13493;SDS011;6819;50.886;4.332;2023-05-14T02:31:29;82.30;;;36.10;;
13493;SDS011;6819;50.886;4.332;2023-05-14T02:33:55;67.65;;;33.10;;
13493;SDS011;6819;50.886;4.332;2023-05-14T02:36:21;72.85;;;33.50;;
13493;SDS011;6819;50.886;4.332;2023-05-14T02:38:47;85.55;;;35.42;;
13493;SDS011;6819;50.886;4.332;2023-05-14T02:41:13;85.55;;;34.30;;
13493;SDS011;6819;50.886;4.332;2023-05-14T02:43:39;80.85;;;36.13;;
13493;SDS011;6819;50.886;4.332;2023-05-14T02:46:05;79.25;;;36.90;;
13493;SDS011;6819;50.886;4.332;2023-05-14T02:48:31;78.53;;;34.00;;
13493;SDS011;6819;50.886;4.332;2023-05-14T02:50:57;77.82;;;35.55;;
13493;SDS011;6819;50.886;4.332;2023-05-14T02:53:23;74.80;;;34.47;;
13493;SDS011;6819;50.886;4.332;2023-05-14T02:55:49;72.05;;;34.20;;
13493;SDS011;6819;50.886;4.332;2023-05-14T02:58:15;75.97;;;34.45;;
13493;SDS011;6819;50.886;4.332;2023-05-14T03:00:41;75.72;;;36.35;;
13493;SDS011;6819;50.886;4.332;2023-05-14T03:03:07;74.63;;;36.88;;
13493;SDS011;6819;50.886;4.332;2023-05-14T03:05:33;71.72;;;33.90;;
13493;SDS011;6819;50.886;4.332;2023-05-14T03:07:59;80.55;;;35.08;;
13493;SDS011;6819;50.886;4.332;2023-05-14T03:10:25;82.03;;;34.55;;
13493;SDS011;6819;50.886;4.332;2023-05-14T03:12:51;77.38;;;34.78;;
13493;SDS011;6819;50.886;4.332;2023-05-14T03:15:18;78.85;;;36.88;;
13493;SDS011;6819;50.886;4.332;2023-05-14T03:17:44;74.07;;;34.53;;
13493;SDS011;6819;50.886;4.332;2023-05-14T03:20:10;76.05;;;34.42;;
13493;SDS011;6819;50.886;4.332;2023-05-14T03:22:37;80.53;;;35.10;;
13493;SDS011;6819;50.886;4.332;2023-05-14T03:25:03;78.22;;;36.42;;
13493;SDS011;6819;50.886;4.332;2023-05-14T03:27:29;82.05;;;36.83;;
13493;SDS011;6819;50.886;4.332;2023-05-14T03:29:55;78.30;;;35.08;;
13493;SDS011;6819;50.886;4.332;2023-05-14T03:32:21;82.25;;;36.20;;
13493;SDS011;6819;50.886;4.332;2023-05-14T03:34:47;72.43;;;34.65;;
13493;SDS011;6819;50.886;4.332;2023-05-14T03:37:13;78.28;;;35.33;;
13493;SDS011;6819;50.886;4.332;2023-05-14T03:39:39;77.93;;;34.80;;
13493;SDS011;6819;50.886;4.332;2023-05-14T03:42:05;86.20;;;36.65;;
13493;SDS011;6819;50.886;4.332;2023-05-14T03:44:31;73.30;;;33.70;;
13493;SDS011;6819;50.886;4.332;2023-05-14T03:46:57;75.47;;;35.88;;
13493;SDS011;6819;50.886;4.332;2023-05-14T03:49:23;72.97;;;35.05;;
13493;SDS011;6819;50.886;4.332;2023-05-14T03:51:50;71.45;;;34.47;;
13493;SDS011;6819;50.886;4.332;2023-05-14T03:54:16;80.00;;;35.42;;
13493;SDS011;6819;50.886;4.332;2023-05-14T03:56:42;78.93;;;35.63;;
13493;SDS011;6819;50.886;4.332;2023-05-14T03:59:08;75.32;;;34.90;;
13493;SDS011;6819;50.886;4.332;2023-05-14T04:01:34;81.43;;;33.95;;
13493;SDS011;6819;50.886;4.332;2023-05-14T04:04:00;75.20;;;34.28;;
13493;SDS011;6819;50.886;4.332;2023-05-14T04:06:26;83.43;;;34.63;;
13493;SDS011;6819;50.886;4.332;2023-05-14T04:08:52;80.35;;;34.58;;
13493;SDS011;6819;50.886;4.332;2023-05-14T04:11:18;82.95;;;34.20;;
13493;SDS011;6819;50.886;4.332;2023-05-14T04:13:45;79.22;;;32.67;;
13493;SDS011;6819;50.886;4.332;2023-05-14T04:16:11;71.55;;;32.33;;
13493;SDS011;6819;50.886;4.332;2023-05-14T04:18:37;71.68;;;33.30;;
13493;SDS011;6819;50.886;4.332;2023-05-14T04:21:03;70.32;;;33.53;;
13493;SDS011;6819;50.886;4.332;2023-05-14T04:23:29;73.07;;;31.58;;
13493;SDS011;6819;50.886;4.332;2023-05-14T04:25:56;83.70;;;33.70;;
13493;SDS011;6819;50.886;4.332;2023-05-14T04:28:22;77.50;;;33.20;;
13493;SDS011;6819;50.886;4.332;2023-05-14T04:30:48;67.40;;;33.25;;
13493;SDS011;6819;50.886;4.332;2023-05-14T04:33:14;80.97;;;34.78;;
13493;SDS011;6819;50.886;4.332;2023-05-14T04:35:40;79.55;;;36.30;;
13493;SDS011;6819;50.886;4.332;2023-05-14T04:38:06;89.45;;;35.38;;
13493;SDS011;6819;50.886;4.332;2023-05-14T04:40:33;75.90;;;32.67;;
13493;SDS011;6819;50.886;4.332;2023-05-14T04:42:59;73.53;;;34.38;;
13493;SDS011;6819;50.886;4.332;2023-05-14T04:45:25;76.70;;;34.35;;
13493;SDS011;6819;50.886;4.332;2023-05-14T04:47:51;75.88;;;35.03;;
13493;SDS011;6819;50.886;4.332;2023-05-14T04:50:18;85.95;;;35.08;;
13493;SDS011;6819;50.886;4.332;2023-05-14T04:52:44;80.03;;;34.55;;
13493;SDS011;6819;50.886;4.332;2023-05-14T04:55:10;78.35;;;35.70;;
13493;SDS011;6819;50.886;4.332;2023-05-14T04:57:36;74.75;;;34.65;;
13493;SDS011;6819;50.886;4.332;2023-05-14T05:00:02;87.82;;;35.22;;
13493;SDS011;6819;50.886;4.332;2023-05-14T05:02:31;74.82;;;34.13;;
13493;SDS011;6819;50.886;4.332;2023-05-14T05:04:58;75.85;;;33.13;;
13493;SDS011;6819;50.886;4.332;2023-05-14T05:07:24;77.22;;;34.20;;
13493;SDS011;6819;50.886;4.332;2023-05-14T05:09:50;89.78;;;34.63;;
13493;SDS011;6819;50.886;4.332;2023-05-14T05:12:16;74.25;;;32.40;;
13493;SDS011;6819;50.886;4.332;2023-05-14T05:14:42;83.15;;;33.55;;
13493;SDS011;6819;50.886;4.332;2023-05-14T05:17:08;75.43;;;32.58;;
13493;SDS011;6819;50.886;4.332;2023-05-14T05:19:34;81.60;;;34.97;;
13493;SDS011;6819;50.886;4.332;2023-05-14T05:22:00;79.82;;;33.75;;
13493;SDS011;6819;50.886;4.332;2023-05-14T05:24:26;80.47;;;31.88;;
13493;SDS011;6819;50.886;4.332;2023-05-14T05:26:52;72.28;;;32.60;;
13493;SDS011;6819;50.886;4.332;2023-05-14T05:29:19;81.75;;;34.08;;
13493;SDS011;6819;50.886;4.332;2023-05-14T05:31:46;76.72;;;32.55;;
13493;SDS011;6819;50.886;4.332;2023-05-14T05:34:12;77.63;;;31.52;;
13493;SDS011;6819;50.886;4.332;2023-05-14T05:36:38;69.15;;;32.65;;
13493;SDS011;6819;50.886;4.332;2023-05-14T05:39:04;67.35;;;32.08;;
13493;SDS011;6819;50.886;4.332;2023-05-14T05:41:30;67.43;;;31.23;;
13493;SDS011;6819;50.886;4.332;2023-05-14T05:43:56;71.60;;;31.20;;
13493;SDS011;6819;50.886;4.332;2023-05-14T05:46:22;74.80;;;32.75;;
13493;SDS011;6819;50.886;4.332;2023-05-14T05:48:48;73.85;;;32.67;;
13493;SDS011;6819;50.886;4.332;2023-05-14T05:51:15;67.97;;;31.48;;
13493;SDS011;6819;50.886;4.332;2023-05-14T05:53:41;71.93;;;32.75;;
13493;SDS011;6819;50.886;4.332;2023-05-14T05:56:07;65.30;;;30.38;;
13493;SDS011;6819;50.886;4.332;2023-05-14T05:58:33;65.38;;;30.60;;
13493;SDS011;6819;50.886;4.332;2023-05-14T06:00:59;67.93;;;31.50;;
13493;SDS011;6819;50.886;4.332;2023-05-14T06:03:25;73.38;;;33.03;;
13493;SDS011;6819;50.886;4.332;2023-05-14T06:05:51;66.13;;;31.05;;
13493;SDS011;6819;50.886;4.332;2023-05-14T06:08:17;68.22;;;31.65;;
13493;SDS011;6819;50.886;4.332;2023-05-14T06:10:43;73.55;;;30.95;;
13493;SDS011;6819;50.886;4.332;2023-05-14T06:13:10;73.45;;;33.50;;
13493;SDS011;6819;50.886;4.332;2023-05-14T06:15:36;66.70;;;31.92;;
13493;SDS011;6819;50.886;4.332;2023-05-14T06:18:02;78.75;;;31.58;;
13493;SDS011;6819;50.886;4.332;2023-05-14T06:20:29;66.40;;;32.00;;
13493;SDS011;6819;50.886;4.332;2023-05-14T06:22:55;71.30;;;31.20;;
13493;SDS011;6819;50.886;4.332;2023-05-14T06:25:21;65.00;;;29.88;;
13493;SDS011;6819;50.886;4.332;2023-05-14T06:27:47;72.75;;;29.38;;
13493;SDS011;6819;50.886;4.332;2023-05-14T06:30:13;62.88;;;29.42;;
13493;SDS011;6819;50.886;4.332;2023-05-14T06:32:40;66.47;;;29.20;;
13493;SDS011;6819;50.886;4.332;2023-05-14T06:35:06;58.25;;;27.58;;
13493;SDS011;6819;50.886;4.332;2023-05-14T06:37:32;63.58;;;31.20;;
13493;SDS011;6819;50.886;4.332;2023-05-14T06:39:59;61.88;;;28.17;;
13493;SDS011;6819;50.886;4.332;2023-05-14T06:42:25;62.03;;;29.02;;
13493;SDS011;6819;50.886;4.332;2023-05-14T06:44:51;61.30;;;28.38;;
13493;SDS011;6819;50.886;4.332;2023-05-14T06:47:17;59.45;;;26.35;;
13493;SDS011;6819;50.886;4.332;2023-05-14T06:49:43;57.00;;;27.83;;
13493;SDS011;6819;50.886;4.332;2023-05-14T06:52:09;52.03;;;27.83;;
13493;SDS011;6819;50.886;4.332;2023-05-14T06:54:35;54.17;;;27.75;;
13493;SDS011;6819;50.886;4.332;2023-05-14T06:57:02;63.40;;;29.40;;
13493;SDS011;6819;50.886;4.332;2023-05-14T06:59:28;64.20;;;28.85;;
13493;SDS011;6819;50.886;4.332;2023-05-14T07:01:54;53.05;;;26.00;;
13493;SDS011;6819;50.886;4.332;2023-05-14T07:04:20;56.42;;;25.08;;
13493;SDS011;6819;50.886;4.332;2023-05-14T07:06:46;52.28;;;27.00;;
13493;SDS011;6819;50.886;4.332;2023-05-14T07:09:12;57.97;;;28.70;;
13493;SDS011;6819;50.886;4.332;2023-05-14T07:11:39;53.92;;;25.70;;
13493;SDS011;6819;50.886;4.332;2023-05-14T07:14:05;56.65;;;27.70;;
13493;SDS011;6819;50.886;4.332;2023-05-14T07:16:31;55.47;;;26.27;;
13493;SDS011;6819;50.886;4.332;2023-05-14T07:18:57;54.58;;;28.42;;
13493;SDS011;6819;50.886;4.332;2023-05-14T07:21:23;62.72;;;27.52;;
13493;SDS011;6819;50.886;4.332;2023-05-14T07:23:50;50.90;;;25.80;;
13493;SDS011;6819;50.886;4.332;2023-05-14T07:26:16;55.63;;;28.33;;
13493;SDS011;6819;50.886;4.332;2023-05-14T07:28:42;48.80;;;24.73;;
13493;SDS011;6819;50.886;4.332;2023-05-14T07:31:08;46.22;;;25.60;;
13493;SDS011;6819;50.886;4.332;2023-05-14T07:33:34;54.53;;;26.27;;
13493;SDS011;6819;50.886;4.332;2023-05-14T07:36:00;53.55;;;25.55;;
13493;SDS011;6819;50.886;4.332;2023-05-14T07:38:26;61.75;;;26.95;;
13493;SDS011;6819;50.886;4.332;2023-05-14T07:40:52;57.15;;;27.40;;
13493;SDS011;6819;50.886;4.332;2023-05-14T07:43:18;54.63;;;25.45;;
13493;SDS011;6819;50.886;4.332;2023-05-14T07:45:45;52.08;;;26.50;;
13493;SDS011;6819;50.886;4.332;2023-05-14T07:48:11;49.92;;;24.95;;
13493;SDS011;6819;50.886;4.332;2023-05-14T07:50:37;48.85;;;26.58;;
13493;SDS011;6819;50.886;4.332;2023-05-14T07:53:03;47.03;;;25.55;;
13493;SDS011;6819;50.886;4.332;2023-05-14T07:55:29;52.75;;;26.00;;
13493;SDS011;6819;50.886;4.332;2023-05-14T07:57:55;57.88;;;26.77;;
13493;SDS011;6819;50.886;4.332;2023-05-14T08:00:21;49.83;;;25.30;;
13493;SDS011;6819;50.886;4.332;2023-05-14T08:02:47;46.92;;;25.85;;
13493;SDS011;6819;50.886;4.332;2023-05-14T08:05:14;55.45;;;24.95;;
13493;SDS011;6819;50.886;4.332;2023-05-14T08:07:40;50.92;;;26.17;;
13493;SDS011;6819;50.886;4.332;2023-05-14T08:10:07;51.92;;;25.30;;
13493;SDS011;6819;50.886;4.332;2023-05-14T08:12:33;50.40;;;25.33;;
13493;SDS011;6819;50.886;4.332;2023-05-14T08:14:59;44.28;;;24.90;;
13493;SDS011;6819;50.886;4.332;2023-05-14T08:17:25;45.78;;;25.42;;
13493;SDS011;6819;50.886;4.332;2023-05-14T08:19:52;44.65;;;24.17;;
13493;SDS011;6819;50.886;4.332;2023-05-14T08:22:18;48.78;;;24.35;;
13493;SDS011;6819;50.886;4.332;2023-05-14T08:24:45;37.70;;;22.00;;
13493;SDS011;6819;50.886;4.332;2023-05-14T08:27:11;47.55;;;24.05;;
13493;SDS011;6819;50.886;4.332;2023-05-14T08:29:37;43.47;;;24.67;;
13493;SDS011;6819;50.886;4.332;2023-05-14T08:32:04;44.00;;;22.80;;
13493;SDS011;6819;50.886;4.332;2023-05-14T08:34:30;38.92;;;21.95;;
13493;SDS011;6819;50.886;4.332;2023-05-14T08:36:56;42.50;;;22.80;;
13493;SDS011;6819;50.886;4.332;2023-05-14T08:39:22;37.47;;;22.63;;
13493;SDS011;6819;50.886;4.332;2023-05-14T08:41:48;35.08;;;21.52;;
13493;SDS011;6819;50.886;4.332;2023-05-14T08:46:40;38.95;;;21.45;;
13493;SDS011;6819;50.886;4.332;2023-05-14T08:49:09;37.13;;;20.85;;
13493;SDS011;6819;50.886;4.332;2023-05-14T08:51:40;39.08;;;22.35;;
13493;SDS011;6819;50.886;4.332;2023-05-14T08:54:06;40.55;;;21.15;;
13493;SDS011;6819;50.886;4.332;2023-05-14T08:56:32;41.42;;;22.45;;
13493;SDS011;6819;50.886;4.332;2023-05-14T08:58:58;36.80;;;22.17;;
13493;SDS011;6819;50.886;4.332;2023-05-14T09:01:24;36.88;;;22.13;;
13493;SDS011;6819;50.886;4.332;2023-05-14T09:03:51;36.92;;;21.60;;
13493;SDS011;6819;50.886;4.332;2023-05-14T09:06:18;35.08;;;21.27;;
13493;SDS011;6819;50.886;4.332;2023-05-14T09:08:45;39.00;;;20.90;;
13493;SDS011;6819;50.886;4.332;2023-05-14T09:11:11;37.50;;;21.05;;
13493;SDS011;6819;50.886;4.332;2023-05-14T09:13:37;41.92;;;22.30;;
13493;SDS011;6819;50.886;4.332;2023-05-14T09:16:03;37.85;;;20.42;;
13493;SDS011;6819;50.886;4.332;2023-05-14T09:18:30;35.55;;;21.30;;
13493;SDS011;6819;50.886;4.332;2023-05-14T09:20:56;34.33;;;20.55;;
13493;SDS011;6819;50.886;4.332;2023-05-14T09:23:24;30.80;;;20.02;;
13493;SDS011;6819;50.886;4.332;2023-05-14T09:25:51;33.20;;;21.17;;
13493;SDS011;6819;50.886;4.332;2023-05-14T09:28:17;34.17;;;21.75;;
13493;SDS011;6819;50.886;4.332;2023-05-14T09:30:51;34.78;;;21.45;;
13493;SDS011;6819;50.886;4.332;2023-05-14T09:33:26;32.70;;;20.85;;
13493;SDS011;6819;50.886;4.332;2023-05-14T09:35:59;41.13;;;21.48;;
13493;SDS011;6819;50.886;4.332;2023-05-14T09:38:31;29.90;;;19.10;;
13493;SDS011;6819;50.886;4.332;2023-05-14T09:40:58;31.88;;;20.00;;
13493;SDS011;6819;50.886;4.332;2023-05-14T09:43:25;32.38;;;19.63;;
13493;SDS011;6819;50.886;4.332;2023-05-14T09:45:51;34.92;;;20.38;;
13493;SDS011;6819;50.886;4.332;2023-05-14T09:48:17;32.65;;;20.90;;
13493;SDS011;6819;50.886;4.332;2023-05-14T09:50:44;32.65;;;20.02;;
13493;SDS011;6819;50.886;4.332;2023-05-14T09:53:10;30.98;;;20.00;;
13493;SDS011;6819;50.886;4.332;2023-05-14T09:55:37;32.45;;;19.27;;
13493;SDS011;6819;50.886;4.332;2023-05-14T09:58:04;28.77;;;19.85;;
13493;SDS011;6819;50.886;4.332;2023-05-14T10:00:33;29.63;;;19.85;;
13493;SDS011;6819;50.886;4.332;2023-05-14T10:03:03;29.77;;;19.58;;
13493;SDS011;6819;50.886;4.332;2023-05-14T10:05:32;32.38;;;20.33;;
13493;SDS011;6819;50.886;4.332;2023-05-14T10:08:00;31.73;;;19.52;;
13493;SDS011;6819;50.886;4.332;2023-05-14T10:10:28;33.10;;;20.58;;
13493;SDS011;6819;50.886;4.332;2023-05-14T10:12:59;33.15;;;19.23;;
13493;SDS011;6819;50.886;4.332;2023-05-14T10:18:18;29.63;;;18.80;;
13493;SDS011;6819;50.886;4.332;2023-05-14T10:20:47;25.60;;;16.92;;
13493;SDS011;6819;50.886;4.332;2023-05-14T10:23:13;24.02;;;16.17;;
13493;SDS011;6819;50.886;4.332;2023-05-14T10:25:39;23.55;;;16.33;;
13493;SDS011;6819;50.886;4.332;2023-05-14T10:28:05;23.25;;;16.50;;
13493;SDS011;6819;50.886;4.332;2023-05-14T10:30:31;27.77;;;16.38;;
13493;SDS011;6819;50.886;4.332;2023-05-14T10:33:04;27.40;;;16.58;;
13493;SDS011;6819;50.886;4.332;2023-05-14T10:35:30;27.63;;;17.08;;
13493;SDS011;6819;50.886;4.332;2023-05-14T10:38:15;21.67;;;14.80;;
13493;SDS011;6819;50.886;4.332;2023-05-14T10:40:41;24.92;;;17.23;;
13493;SDS011;6819;50.886;4.332;2023-05-14T10:43:07;29.25;;;16.45;;
13493;SDS011;6819;50.886;4.332;2023-05-14T10:45:35;24.27;;;16.92;;
13493;SDS011;6819;50.886;4.332;2023-05-14T10:48:01;31.13;;;17.10;;
13493;SDS011;6819;50.886;4.332;2023-05-14T10:50:28;31.02;;;18.13;;
13493;SDS011;6819;50.886;4.332;2023-05-14T10:52:54;26.55;;;16.27;;
13493;SDS011;6819;50.886;4.332;2023-05-14T10:55:21;33.33;;;20.80;;
13493;SDS011;6819;50.886;4.332;2023-05-14T10:57:47;30.40;;;17.88;;
13493;SDS011;6819;50.886;4.332;2023-05-14T11:00:13;21.23;;;15.98;;
13493;SDS011;6819;50.886;4.332;2023-05-14T11:02:40;26.67;;;16.27;;
13493;SDS011;6819;50.886;4.332;2023-05-14T11:05:07;24.80;;;15.75;;
13493;SDS011;6819;50.886;4.332;2023-05-14T11:07:35;25.35;;;17.20;;
13493;SDS011;6819;50.886;4.332;2023-05-14T11:12:28;29.42;;;16.73;;
13493;SDS011;6819;50.886;4.332;2023-05-14T11:14:58;26.63;;;15.55;;
13493;SDS011;6819;50.886;4.332;2023-05-14T11:17:25;28.50;;;16.05;;
13493;SDS011;6819;50.886;4.332;2023-05-14T11:19:51;27.58;;;15.95;;
13493;SDS011;6819;50.886;4.332;2023-05-14T11:22:17;24.55;;;16.27;;
13493;SDS011;6819;50.886;4.332;2023-05-14T11:24:43;32.45;;;16.55;;
13493;SDS011;6819;50.886;4.332;2023-05-14T11:27:09;24.50;;;14.85;;
13493;SDS011;6819;50.886;4.332;2023-05-14T11:29:36;24.63;;;14.98;;
13493;SDS011;6819;50.886;4.332;2023-05-14T11:32:03;23.95;;;15.88;;
13493;SDS011;6819;50.886;4.332;2023-05-14T11:34:30;23.98;;;14.35;;
13493;SDS011;6819;50.886;4.332;2023-05-14T11:36:56;24.42;;;14.23;;
13493;SDS011;6819;50.886;4.332;2023-05-14T11:39:22;25.67;;;15.63;;
13493;SDS011;6819;50.886;4.332;2023-05-14T11:41:48;25.70;;;14.27;;
13493;SDS011;6819;50.886;4.332;2023-05-14T11:44:14;22.75;;;14.18;;
13493;SDS011;6819;50.886;4.332;2023-05-14T11:46:40;23.08;;;14.15;;
13493;SDS011;6819;50.886;4.332;2023-05-14T11:49:19;23.15;;;14.15;;
13493;SDS011;6819;50.886;4.332;2023-05-14T11:51:45;22.77;;;15.30;;
13493;SDS011;6819;50.886;4.332;2023-05-14T11:54:12;23.83;;;14.55;;
13493;SDS011;6819;50.886;4.332;2023-05-14T11:56:38;24.27;;;14.80;;
13493;SDS011;6819;50.886;4.332;2023-05-14T11:59:04;21.35;;;14.70;;
13493;SDS011;6819;50.886;4.332;2023-05-14T12:01:35;21.75;;;14.57;;
13493;SDS011;6819;50.886;4.332;2023-05-14T12:04:02;19.92;;;13.32;;
13493;SDS011;6819;50.886;4.332;2023-05-14T12:06:29;20.77;;;13.65;;
13493;SDS011;6819;50.886;4.332;2023-05-14T12:08:56;22.58;;;14.05;;
13493;SDS011;6819;50.886;4.332;2023-05-14T12:11:22;18.35;;;14.00;;
13493;SDS011;6819;50.886;4.332;2023-05-14T12:13:48;18.88;;;13.88;;
13493;SDS011;6819;50.886;4.332;2023-05-14T12:16:14;19.73;;;13.70;;
13493;SDS011;6819;50.886;4.332;2023-05-14T12:18:41;20.50;;;12.82;;
13493;SDS011;6819;50.886;4.332;2023-05-14T12:21:07;21.67;;;14.82;;
13493;SDS011;6819;50.886;4.332;2023-05-14T12:23:33;19.85;;;14.07;;
13493;SDS011;6819;50.886;4.332;2023-05-14T12:26:00;20.42;;;13.18;;
13493;SDS011;6819;50.886;4.332;2023-05-14T12:28:27;17.95;;;11.82;;
13493;SDS011;6819;50.886;4.332;2023-05-14T12:30:56;18.40;;;13.32;;
13493;SDS011;6819;50.886;4.332;2023-05-14T12:33:23;18.40;;;12.52;;
13493;SDS011;6819;50.886;4.332;2023-05-14T12:35:50;18.90;;;13.20;;
13493;SDS011;6819;50.886;4.332;2023-05-14T12:38:17;18.20;;;12.65;;
13493;SDS011;6819;50.886;4.332;2023-05-14T12:40:44;18.55;;;12.98;;
13493;SDS011;6819;50.886;4.332;2023-05-14T12:43:10;18.90;;;13.32;;
13493;SDS011;6819;50.886;4.332;2023-05-14T12:45:36;20.52;;;12.45;;
13493;SDS011;6819;50.886;4.332;2023-05-14T12:48:02;17.27;;;13.55;;
13493;SDS011;6819;50.886;4.332;2023-05-14T12:50:28;19.40;;;11.95;;
13493;SDS011;6819;50.886;4.332;2023-05-14T12:52:54;17.40;;;12.77;;
13493;SDS011;6819;50.886;4.332;2023-05-14T12:55:21;23.77;;;13.07;;
13493;SDS011;6819;50.886;4.332;2023-05-14T12:57:48;17.52;;;11.90;;
13493;SDS011;6819;50.886;4.332;2023-05-14T13:00:14;18.92;;;13.27;;
13493;SDS011;6819;50.886;4.332;2023-05-14T13:02:40;19.45;;;12.05;;
13493;SDS011;6819;50.886;4.332;2023-05-14T13:05:06;17.38;;;12.60;;
13493;SDS011;6819;50.886;4.332;2023-05-14T13:07:32;15.13;;;11.18;;
13493;SDS011;6819;50.886;4.332;2023-05-14T13:09:58;19.23;;;11.50;;
13493;SDS011;6819;50.886;4.332;2023-05-14T13:12:24;18.38;;;12.00;;
13493;SDS011;6819;50.886;4.332;2023-05-14T13:14:50;16.42;;;10.52;;
13493;SDS011;6819;50.886;4.332;2023-05-14T13:17:17;15.77;;;10.32;;
13493;SDS011;6819;50.886;4.332;2023-05-14T13:19:43;13.05;;;10.80;;
13493;SDS011;6819;50.886;4.332;2023-05-14T13:22:09;12.55;;;10.10;;
13493;SDS011;6819;50.886;4.332;2023-05-14T13:24:35;13.15;;;9.88;;
13493;SDS011;6819;50.886;4.332;2023-05-14T13:27:01;12.63;;;10.02;;
13493;SDS011;6819;50.886;4.332;2023-05-14T13:29:27;18.85;;;11.25;;
13493;SDS011;6819;50.886;4.332;2023-05-14T13:31:55;15.55;;;8.15;;
13493;SDS011;6819;50.886;4.332;2023-05-14T13:34:21;13.00;;;9.10;;
13493;SDS011;6819;50.886;4.332;2023-05-14T13:36:47;18.52;;;11.02;;
13493;SDS011;6819;50.886;4.332;2023-05-14T13:39:14;19.75;;;9.50;;
13493;SDS011;6819;50.886;4.332;2023-05-14T13:41:40;11.88;;;10.13;;
13493;SDS011;6819;50.886;4.332;2023-05-14T13:44:06;14.60;;;9.93;;
13493;SDS011;6819;50.886;4.332;2023-05-14T13:46:32;12.73;;;8.98;;
13493;SDS011;6819;50.886;4.332;2023-05-14T13:48:59;15.18;;;10.30;;
13493;SDS011;6819;50.886;4.332;2023-05-14T13:51:25;13.52;;;9.48;;
13493;SDS011;6819;50.886;4.332;2023-05-14T13:53:51;16.63;;;9.48;;
13493;SDS011;6819;50.886;4.332;2023-05-14T13:56:17;12.20;;;8.40;;
13493;SDS011;6819;50.886;4.332;2023-05-14T13:58:43;15.80;;;9.75;;
13493;SDS011;6819;50.886;4.332;2023-05-14T14:01:09;14.45;;;10.20;;
13493;SDS011;6819;50.886;4.332;2023-05-14T14:03:35;15.02;;;9.27;;
13493;SDS011;6819;50.886;4.332;2023-05-14T14:06:01;11.15;;;8.38;;
13493;SDS011;6819;50.886;4.332;2023-05-14T14:08:27;11.65;;;8.75;;
13493;SDS011;6819;50.886;4.332;2023-05-14T14:10:55;15.55;;;9.30;;
13493;SDS011;6819;50.886;4.332;2023-05-14T14:13:21;13.98;;;9.13;;
13493;SDS011;6819;50.886;4.332;2023-05-14T14:15:47;14.48;;;9.23;;
13493;SDS011;6819;50.886;4.332;2023-05-14T14:18:14;12.95;;;8.65;;
13493;SDS011;6819;50.886;4.332;2023-05-14T14:20:40;12.75;;;9.07;;
13493;SDS011;6819;50.886;4.332;2023-05-14T14:23:06;15.02;;;8.35;;
13493;SDS011;6819;50.886;4.332;2023-05-14T14:25:32;14.73;;;8.88;;
13493;SDS011;6819;50.886;4.332;2023-05-14T14:27:58;11.50;;;8.77;;
13493;SDS011;6819;50.886;4.332;2023-05-14T14:30:25;17.35;;;8.38;;
13493;SDS011;6819;50.886;4.332;2023-05-14T14:32:51;15.13;;;8.30;;
13493;SDS011;6819;50.886;4.332;2023-05-14T14:35:17;13.25;;;8.30;;
13493;SDS011;6819;50.886;4.332;2023-05-14T14:37:44;10.95;;;8.68;;
13493;SDS011;6819;50.886;4.332;2023-05-14T14:40:14;8.70;;;7.15;;
13493;SDS011;6819;50.886;4.332;2023-05-14T14:42:41;12.05;;;7.15;;
13493;SDS011;6819;50.886;4.332;2023-05-14T14:45:07;14.30;;;8.18;;